createdAt,value
2023-05-19T00:01:31.167Z,6.64
2023-05-19T00:04:02.476Z,6.31
2023-05-19T00:06:32.043Z,6.69
2023-05-19T00:09:01.809Z,6.87
2023-05-19T00:11:32.360Z,7.01
2023-05-19T00:14:00.528Z,6.54
2023-05-19T00:16:29.754Z,6.87
2023-05-19T00:19:02.066Z,6.80
2023-05-19T00:21:31.257Z,6.91
2023-05-19T00:23:58.920Z,6.98
2023-05-19T00:26:27.728Z,6.44
2023-05-19T00:29:00.341Z,6.54
2023-05-19T00:31:27.935Z,6.34
2023-05-19T00:33:57.885Z,6.61
2023-05-19T00:36:26.223Z,6.68
2023-05-19T00:38:56.426Z,6.27
2023-05-19T00:41:23.870Z,6.54
2023-05-19T00:43:51.213Z,6.74
2023-05-19T00:46:19.676Z,6.88
2023-05-19T00:48:46.842Z,6.29
2023-05-19T00:51:17.073Z,6.52
2023-05-19T00:53:49.011Z,6.06
2023-05-19T00:56:17.779Z,6.56
2023-05-19T00:58:45.777Z,6.80
2023-05-19T01:01:14.585Z,6.91
2023-05-19T01:03:43.107Z,6.81
2023-05-19T01:06:12.143Z,6.64
2023-05-19T01:08:39.543Z,6.61
2023-05-19T01:11:08.046Z,6.45
2023-05-19T01:13:36.472Z,6.61
2023-05-19T01:16:13.133Z,6.85
2023-05-19T01:19:13.979Z,6.75
2023-05-19T01:22:01.151Z,6.58
2023-05-19T01:24:57.744Z,6.79
2023-05-19T01:27:43.133Z,6.95
2023-05-19T01:30:36.488Z,6.64
2023-05-19T01:33:08.041Z,6.70
2023-05-19T01:35:37.541Z,6.81
2023-05-19T01:38:07.545Z,6.89
2023-05-19T01:40:35.197Z,6.81
2023-05-19T01:43:02.800Z,6.80
2023-05-19T01:45:32.640Z,6.83
2023-05-19T01:48:03.493Z,6.98
2023-05-19T01:50:31.137Z,6.98
2023-05-19T01:52:59.380Z,7.15
2023-05-19T01:55:28.456Z,7.07
2023-05-19T01:58:08.238Z,6.95
2023-05-19T02:00:35.754Z,7.05
2023-05-19T02:03:13.854Z,7.09
2023-05-19T02:05:55.835Z,6.94
2023-05-19T02:08:44.373Z,7.09
2023-05-19T02:11:25.833Z,7.28
2023-05-19T02:13:56.934Z,7.16
2023-05-19T02:16:28.659Z,7.10
2023-05-19T02:18:57.304Z,7.14
2023-05-19T02:21:24.390Z,7.28
2023-05-19T02:23:51.835Z,7.38
2023-05-19T02:26:20.185Z,7.13
2023-05-19T02:28:47.480Z,7.08
2023-05-19T02:31:14.504Z,7.11
2023-05-19T02:33:43.058Z,7.36
2023-05-19T02:36:10.224Z,7.45
2023-05-19T02:38:37.719Z,7.43
2023-05-19T02:41:04.808Z,7.29
2023-05-19T02:43:32.134Z,7.40
2023-05-19T02:45:59.147Z,7.59
2023-05-19T02:48:27.470Z,7.44
2023-05-19T02:50:54.703Z,7.50
2023-05-19T02:53:22.009Z,7.47
2023-05-19T02:55:49.073Z,7.55
2023-05-19T02:58:16.509Z,7.52
2023-05-19T03:00:45.169Z,7.48
2023-05-19T03:03:13.906Z,7.60
2023-05-19T03:05:41.443Z,7.44
2023-05-19T03:08:09.305Z,7.65
2023-05-19T03:10:36.473Z,7.63
2023-05-19T03:13:03.945Z,7.52
2023-05-19T03:15:31.257Z,7.53
2023-05-19T03:17:59.007Z,7.64
2023-05-19T03:20:26.170Z,7.46
2023-05-19T03:22:53.792Z,7.85
2023-05-19T03:25:22.558Z,7.86
2023-05-19T03:27:50.028Z,7.89
2023-05-19T03:30:17.352Z,7.88
2023-05-19T03:33:03.541Z,7.83
2023-05-19T03:35:30.896Z,8.00
2023-05-19T03:37:58.262Z,7.96
2023-05-19T03:40:26.084Z,8.17
2023-05-19T03:43:01.162Z,8.19
2023-05-19T03:45:29.497Z,8.33
2023-05-19T03:47:58.594Z,8.11
2023-05-19T03:50:51.825Z,8.16
2023-05-19T03:53:24.039Z,8.38
2023-05-19T03:55:51.186Z,8.43
2023-05-19T03:58:19.166Z,8.28
2023-05-19T04:00:48.623Z,8.33
2023-05-19T04:03:18.077Z,8.51
2023-05-19T04:05:48.119Z,8.67
2023-05-19T04:08:15.826Z,8.60
2023-05-19T04:10:47.495Z,8.38
2023-05-19T04:13:16.145Z,8.77
2023-05-19T04:15:44.466Z,8.51
2023-05-19T04:18:12.170Z,8.79
2023-05-19T04:20:40.716Z,8.67
2023-05-19T04:23:12.723Z,8.72
2023-05-19T04:25:42.649Z,9.06
2023-05-19T04:28:15.617Z,8.95
2023-05-19T04:30:43.550Z,8.68
2023-05-19T04:33:19.494Z,8.89
2023-05-19T04:35:50.390Z,9.15
2023-05-19T04:38:20.346Z,9.24
2023-05-19T04:40:52.451Z,9.25
2023-05-19T04:43:39.637Z,9.34
2023-05-19T04:46:33.802Z,9.42
2023-05-19T04:49:12.946Z,9.42
2023-05-19T04:51:41.607Z,9.34
2023-05-19T04:54:10.763Z,9.74
2023-05-19T04:56:39.573Z,9.79
2023-05-19T04:59:12.350Z,9.57
2023-05-19T05:01:49.260Z,9.91
2023-05-19T05:04:20.823Z,9.58
2023-05-19T05:06:51.139Z,9.52
2023-05-19T05:09:52.510Z,10.04
2023-05-19T05:12:29.023Z,9.95
2023-05-19T05:15:07.188Z,10.40
2023-05-19T05:17:39.486Z,9.91
2023-05-19T05:20:13.509Z,10.24
2023-05-19T05:22:49.529Z,10.27
2023-05-19T05:25:22.290Z,10.01
2023-05-19T05:27:52.486Z,10.38
2023-05-19T05:30:22.978Z,10.46
2023-05-19T05:32:53.190Z,10.37
2023-05-19T05:35:50.188Z,10.58
2023-05-19T05:38:20.563Z,10.65
2023-05-19T05:40:54.356Z,10.87
2023-05-19T05:43:36.828Z,10.71
2023-05-19T05:46:20.823Z,10.95
2023-05-19T05:48:55.167Z,10.92
2023-05-19T05:51:30.209Z,11.03
2023-05-19T05:54:06.178Z,11.26
2023-05-19T05:56:45.155Z,11.48
2023-05-19T05:59:18.800Z,11.38
2023-05-19T06:02:05.427Z,11.27
2023-05-19T06:04:57.430Z,11.37
2023-05-19T06:07:39.803Z,12.21
2023-05-19T06:10:10.172Z,11.89
2023-05-19T06:12:45.983Z,11.72
2023-05-19T06:15:23.844Z,11.93
2023-05-19T06:18:11.949Z,11.68
2023-05-19T06:20:45.400Z,11.69
2023-05-19T06:23:23.524Z,12.40
2023-05-19T06:26:00.336Z,12.32
2023-05-19T06:28:45.300Z,12.40
2023-05-19T06:31:19.526Z,12.38
2023-05-19T06:34:21.222Z,12.72
2023-05-19T06:37:27.954Z,12.76
2023-05-19T06:40:08.571Z,12.70
2023-05-19T06:42:41.487Z,13.00
2023-05-19T06:45:35.377Z,12.66
2023-05-19T06:48:12.461Z,13.56
2023-05-19T06:50:49.553Z,12.67
2023-05-19T06:53:25.732Z,12.91
2023-05-19T06:55:59.894Z,12.79
2023-05-19T06:58:54.246Z,12.96
2023-05-19T07:01:50.433Z,12.62
2023-05-19T07:04:48.331Z,12.86
2023-05-19T07:07:23.235Z,12.63
2023-05-19T07:09:57.187Z,13.29
2023-05-19T07:12:35.862Z,12.64
2023-05-19T07:15:30.074Z,12.63
2023-05-19T07:18:32.365Z,12.92
2023-05-19T07:21:07.364Z,12.70
2023-05-19T07:23:35.209Z,13.08
2023-05-19T07:26:04.967Z,13.30
2023-05-19T07:29:04.462Z,13.49
2023-05-19T07:31:47.747Z,14.06
2023-05-19T07:34:18.884Z,13.63
2023-05-19T07:37:11.304Z,14.06
2023-05-19T07:40:08.395Z,14.04
2023-05-19T07:42:53.481Z,13.28
2023-05-19T07:45:29.280Z,14.16
2023-05-19T07:48:16.463Z,14.03
2023-05-19T07:50:45.851Z,13.65
2023-05-19T07:53:22.146Z,14.19
2023-05-19T07:55:58.412Z,14.01
2023-05-19T07:58:51.244Z,14.55
2023-05-19T08:01:24.181Z,13.92
2023-05-19T08:04:04.504Z,14.47
2023-05-19T08:06:35.989Z,14.19
2023-05-19T08:09:07.354Z,14.11
2023-05-19T08:11:37.433Z,13.70
2023-05-19T08:14:16.859Z,14.09
2023-05-19T08:16:46.525Z,14.24
2023-05-19T08:19:16.683Z,14.33
2023-05-19T08:21:57.585Z,13.93
2023-05-19T08:24:34.370Z,14.00
2023-05-19T08:27:31.140Z,14.12
2023-05-19T08:30:38.862Z,14.78
2023-05-19T08:33:25.962Z,14.54
2023-05-19T08:35:59.060Z,14.80
2023-05-19T08:38:26.819Z,14.64
2023-05-19T08:40:54.487Z,14.68
2023-05-19T08:43:22.513Z,14.73
2023-05-19T08:45:51.813Z,15.06
2023-05-19T08:48:22.163Z,15.06
2023-05-19T08:51:16.890Z,14.65
2023-05-19T08:53:53.189Z,15.16
2023-05-19T08:56:31.494Z,15.04
2023-05-19T08:59:00.459Z,14.89
2023-05-19T09:01:30.377Z,14.84
2023-05-19T09:03:58.635Z,14.75
2023-05-19T09:06:26.692Z,14.80
2023-05-19T09:08:54.223Z,14.97
2023-05-19T09:11:22.788Z,14.59
2023-05-19T09:13:50.716Z,15.18
2023-05-19T09:16:18.083Z,14.44
2023-05-19T09:18:58.390Z,14.77
2023-05-19T09:21:31.883Z,15.35
2023-05-19T09:24:05.151Z,14.91
2023-05-19T09:26:42.824Z,15.07
2023-05-19T09:29:18.135Z,14.30
2023-05-19T09:31:51.958Z,14.80
2023-05-19T09:34:24.906Z,14.50
2023-05-19T09:36:53.363Z,14.36
2023-05-19T09:39:24.163Z,14.80
2023-05-19T09:41:53.605Z,14.55
2023-05-19T09:44:21.219Z,14.44
2023-05-19T09:46:51.996Z,14.38
2023-05-19T09:49:21.684Z,14.26
2023-05-19T09:51:55.144Z,14.13
2023-05-19T09:54:28.358Z,13.98
2023-05-19T09:57:03.816Z,14.06
2023-05-19T09:59:33.856Z,14.20
2023-05-19T10:02:02.420Z,14.21
2023-05-19T10:04:31.001Z,14.05
2023-05-19T10:07:01.580Z,13.91
2023-05-19T10:09:30.025Z,14.21
2023-05-19T10:11:58.500Z,14.07
2023-05-19T10:14:27.445Z,14.04
2023-05-19T10:16:56.827Z,14.00
2023-05-19T10:19:27.257Z,14.13
2023-05-19T10:21:56.049Z,14.10
2023-05-19T10:24:24.411Z,14.18
2023-05-19T10:26:54.583Z,14.10
2023-05-19T10:29:30.202Z,14.14
2023-05-19T10:32:01.871Z,14.00
2023-05-19T10:34:50.557Z,13.70
2023-05-19T10:37:32.862Z,13.90
2023-05-19T10:40:05.529Z,14.10
2023-05-19T10:42:45.634Z,14.07
2023-05-19T10:45:21.016Z,14.54
2023-05-19T10:47:51.531Z,13.97
2023-05-19T10:50:20.680Z,13.95
2023-05-19T10:52:55.606Z,14.18
2023-05-19T10:56:04.756Z,14.50
2023-05-19T10:58:44.942Z,14.27
2023-05-19T11:01:20.777Z,13.96
2023-05-19T11:03:57.209Z,13.94
2023-05-19T11:06:29.020Z,14.25
2023-05-19T11:09:15.273Z,14.29
2023-05-19T11:11:53.350Z,14.06
2023-05-19T11:14:23.526Z,13.65
2023-05-19T11:16:52.800Z,13.92
2023-05-19T11:19:27.494Z,14.01
2023-05-19T11:21:56.120Z,14.06
2023-05-19T11:24:38.371Z,13.90
2023-05-19T11:27:31.729Z,14.73
2023-05-19T11:30:18.525Z,14.56
2023-05-19T11:33:06.263Z,14.84
2023-05-19T11:35:36.036Z,14.18
2023-05-19T11:38:03.910Z,14.32
2023-05-19T11:40:31.110Z,14.94
2023-05-19T11:42:59.251Z,14.56
2023-05-19T11:45:26.862Z,14.34
2023-05-19T11:48:02.585Z,13.95
2023-05-19T11:50:35.363Z,13.69
2023-05-19T11:53:02.921Z,13.63
2023-05-19T11:55:30.737Z,14.08
2023-05-19T11:58:05.105Z,14.38
2023-05-19T12:00:38.033Z,14.00
2023-05-19T12:03:06.012Z,14.35
2023-05-19T12:05:40.960Z,14.69
2023-05-19T12:08:11.915Z,14.59
2023-05-19T12:10:39.792Z,14.29
2023-05-19T12:13:11.002Z,14.22
2023-05-19T12:15:39.232Z,14.21
2023-05-19T12:18:07.286Z,13.68
2023-05-19T12:20:37.887Z,13.32
2023-05-19T12:23:05.830Z,13.85
2023-05-19T12:25:33.661Z,13.77
2023-05-19T12:28:05.072Z,13.49
2023-05-19T12:30:33.597Z,13.96
2023-05-19T12:33:02.653Z,13.67
2023-05-19T12:35:34.052Z,13.75
2023-05-19T12:38:06.742Z,13.63
2023-05-19T12:40:35.717Z,13.82
2023-05-19T12:43:04.332Z,13.75
2023-05-19T12:45:38.697Z,13.17
2023-05-19T12:48:11.736Z,13.36
2023-05-19T12:50:39.310Z,13.55
2023-05-19T12:53:11.456Z,13.72
2023-05-19T12:55:43.598Z,13.54
2023-05-19T12:58:16.011Z,13.62
2023-05-19T13:00:47.545Z,13.79
2023-05-19T13:03:17.249Z,14.35
2023-05-19T13:05:47.350Z,13.70
2023-05-19T13:08:21.476Z,13.87
2023-05-19T13:10:49.796Z,13.32
2023-05-19T13:13:18.261Z,13.91
2023-05-19T13:15:49.054Z,13.78
2023-05-19T13:18:17.836Z,13.98
2023-05-19T13:20:45.773Z,14.01
2023-05-19T13:23:14.288Z,14.24
2023-05-19T13:25:42.457Z,14.09
2023-05-19T13:28:11.466Z,13.48
2023-05-19T13:30:40.273Z,13.53
2023-05-19T13:33:08.112Z,13.76
2023-05-19T13:35:38.477Z,14.06
2023-05-19T13:38:07.879Z,13.87
2023-05-19T13:40:35.578Z,13.56
2023-05-19T13:43:05.489Z,14.00
2023-05-19T13:45:33.827Z,13.70
2023-05-19T13:48:01.448Z,14.36
2023-05-19T13:50:28.775Z,14.30
2023-05-19T13:52:56.325Z,14.49
2023-05-19T13:55:23.650Z,14.47
2023-05-19T13:57:51.057Z,13.68
2023-05-19T14:00:19.108Z,13.50
2023-05-19T14:02:46.893Z,13.62
2023-05-19T14:05:14.187Z,13.81
2023-05-19T14:07:42.495Z,13.25
2023-05-19T14:10:10.032Z,13.26
2023-05-19T14:13:07.840Z,13.08
2023-05-19T14:15:28.113Z,13.40
2023-05-19T14:17:55.746Z,13.17
2023-05-19T14:20:23.111Z,13.62
2023-05-19T14:22:50.857Z,14.03
2023-05-19T14:25:20.200Z,14.09
2023-05-19T14:27:47.798Z,13.56
2023-05-19T14:30:15.125Z,13.01
2023-05-19T14:32:42.757Z,13.36
2023-05-19T14:35:10.200Z,13.02
2023-05-19T14:37:37.881Z,13.62
2023-05-19T14:40:05.996Z,13.85
2023-05-19T14:42:33.698Z,13.92
2023-05-19T14:45:01.292Z,14.07
2023-05-19T14:47:32.612Z,13.46
2023-05-19T14:50:03.845Z,12.86
2023-05-19T14:52:31.964Z,12.98
2023-05-19T14:54:59.691Z,13.51
2023-05-19T14:57:28.482Z,13.11
2023-05-19T14:59:56.013Z,12.90
2023-05-19T15:02:24.321Z,13.09
2023-05-19T15:04:51.756Z,13.10
2023-05-19T15:07:19.911Z,13.52
2023-05-19T15:09:47.420Z,12.97
2023-05-19T15:12:20.130Z,13.14
2023-05-19T15:14:55.886Z,13.38
2023-05-19T15:17:31.848Z,12.86
2023-05-19T15:20:00.928Z,12.91
2023-05-19T15:22:28.781Z,12.73
2023-05-19T15:24:56.145Z,13.09
2023-05-19T15:27:23.900Z,12.86
2023-05-19T15:29:51.065Z,12.98
2023-05-19T15:32:18.726Z,12.62
2023-05-19T15:34:46.641Z,12.65
2023-05-19T15:37:14.161Z,12.37
2023-05-19T15:39:44.370Z,12.84
2023-05-19T15:42:12.205Z,12.55
2023-05-19T15:44:39.540Z,12.47
2023-05-19T15:47:28.151Z,12.62
2023-05-19T15:49:56.396Z,12.61
2023-05-19T15:52:24.119Z,12.18
2023-05-19T15:54:51.792Z,12.43
2023-05-19T15:57:20.004Z,12.82
2023-05-19T15:59:47.590Z,12.39
2023-05-19T16:02:15.631Z,12.22
2023-05-19T16:04:43.229Z,12.23
2023-05-19T16:07:10.927Z,12.29
2023-05-19T16:09:38.330Z,12.68
2023-05-19T16:12:06.423Z,12.38
2023-05-19T16:14:37.200Z,12.23
2023-05-19T16:17:11.719Z,12.28
2023-05-19T16:19:39.537Z,12.28
2023-05-19T16:22:07.398Z,12.42
2023-05-19T16:24:34.717Z,12.37
2023-05-19T16:27:02.643Z,12.24
2023-05-19T16:29:30.092Z,12.10
2023-05-19T16:31:57.890Z,12.43
2023-05-19T16:34:27.058Z,12.51
2023-05-19T16:36:58.284Z,12.41
2023-05-19T16:39:26.813Z,12.35
2023-05-19T16:41:54.349Z,12.07
2023-05-19T16:44:21.718Z,12.18
2023-05-19T16:46:49.231Z,12.35
2023-05-19T16:49:16.660Z,12.30
2023-05-19T16:51:44.927Z,12.44
2023-05-19T16:54:13.156Z,12.21
2023-05-19T16:56:41.525Z,12.52
2023-05-19T16:59:09.743Z,12.45
2023-05-19T17:01:37.311Z,12.39
2023-05-19T17:04:04.739Z,12.20
2023-05-19T17:06:32.371Z,11.77
2023-05-19T17:08:59.635Z,11.79
2023-05-19T17:11:27.733Z,12.23
2023-05-19T17:13:55.241Z,11.67
2023-05-19T17:16:23.669Z,12.24
2023-05-19T17:18:51.377Z,11.60
2023-05-19T17:21:19.062Z,11.64
2023-05-19T17:23:46.917Z,11.68
2023-05-19T17:26:17.528Z,12.18
2023-05-19T17:28:46.480Z,11.74
2023-05-19T17:31:16.148Z,11.52
2023-05-19T17:33:45.473Z,11.92
2023-05-19T17:36:15.836Z,11.92
2023-05-19T17:38:54.455Z,11.89
2023-05-19T17:41:22.860Z,11.93
2023-05-19T17:43:50.703Z,11.93
2023-05-19T17:46:18.414Z,12.15
2023-05-19T17:48:55.049Z,12.12
2023-05-19T17:51:25.659Z,11.80
2023-05-19T17:53:53.784Z,11.79
2023-05-19T17:56:23.110Z,11.64
2023-05-19T17:58:51.140Z,11.75
2023-05-19T18:01:20.757Z,11.40
2023-05-19T18:03:49.917Z,11.94
2023-05-19T18:06:18.911Z,11.65
2023-05-19T18:08:51.605Z,11.66
2023-05-19T18:11:19.748Z,11.66
2023-05-19T18:13:47.097Z,11.90
2023-05-19T18:16:15.007Z,11.93
2023-05-19T18:18:44.616Z,11.63
2023-05-19T18:21:14.553Z,11.48
2023-05-19T18:23:42.166Z,11.41
2023-05-19T18:26:12.925Z,11.41
2023-05-19T18:28:42.927Z,11.47
2023-05-19T18:31:26.170Z,11.32
2023-05-19T18:34:18.710Z,11.47
2023-05-19T18:36:55.415Z,11.68
2023-05-19T18:39:29.466Z,11.62
2023-05-19T18:42:13.609Z,11.54
2023-05-19T18:44:53.450Z,11.67
2023-05-19T18:47:32.112Z,11.11
2023-05-19T18:50:05.277Z,11.42
2023-05-19T18:52:38.997Z,11.31
2023-05-19T18:55:11.533Z,11.80
2023-05-19T18:57:42.530Z,11.42
2023-05-19T19:00:11.600Z,11.40
2023-05-19T19:02:40.641Z,11.88
2023-05-19T19:05:14.199Z,11.51
2023-05-19T19:07:45.094Z,11.67
2023-05-19T19:10:13.155Z,11.93
2023-05-19T19:12:42.013Z,11.79
2023-05-19T19:15:15.014Z,11.58
2023-05-19T19:18:14.590Z,11.89
2023-05-19T19:20:42.726Z,11.67
2023-05-19T19:23:11.677Z,11.81
2023-05-19T19:25:40.918Z,11.82
2023-05-19T19:28:09.377Z,11.85
2023-05-19T19:30:38.453Z,11.80
2023-05-19T19:33:07.074Z,11.81
2023-05-19T19:35:35.940Z,11.71
2023-05-19T19:38:04.377Z,11.80
2023-05-19T19:40:35.794Z,11.81
2023-05-19T19:43:06.914Z,11.61
2023-05-19T19:45:39.855Z,11.48
2023-05-19T19:48:09.166Z,11.43
2023-05-19T19:50:39.454Z,11.65
2023-05-19T19:53:08.973Z,11.60
2023-05-19T19:55:37.217Z,11.66
2023-05-19T19:58:07.019Z,11.69
2023-05-19T20:00:37.121Z,11.32
2023-05-19T20:03:06.090Z,11.55
2023-05-19T20:05:40.112Z,11.45
2023-05-19T20:08:09.790Z,11.32
2023-05-19T20:10:42.785Z,11.25
2023-05-19T20:13:11.513Z,11.44
2023-05-19T20:15:44.198Z,11.32
2023-05-19T20:18:13.294Z,11.17
2023-05-19T20:20:42.672Z,11.05
2023-05-19T20:23:13.046Z,11.22
2023-05-19T20:26:02.343Z,11.23
2023-05-19T20:28:36.001Z,11.13
2023-05-19T20:31:05.587Z,11.09
2023-05-19T20:33:34.173Z,11.10
2023-05-19T20:36:03.132Z,11.10
2023-05-19T20:38:42.356Z,11.09
2023-05-19T20:41:13.014Z,11.23
2023-05-19T20:43:42.101Z,11.15
2023-05-19T20:46:15.409Z,11.14
2023-05-19T20:48:44.321Z,11.03
2023-05-19T20:51:16.329Z,11.06
2023-05-19T20:53:45.282Z,11.30
2023-05-19T20:56:13.647Z,11.27
2023-05-19T20:58:42.874Z,11.17
2023-05-19T21:01:11.697Z,11.01
2023-05-19T21:03:39.934Z,11.07
2023-05-19T21:06:09.024Z,10.95
2023-05-19T21:08:37.546Z,11.22
2023-05-19T21:11:07.069Z,11.15
2023-05-19T21:13:39.376Z,11.05
2023-05-19T21:16:09.446Z,11.12
2023-05-19T21:18:37.196Z,11.38
2023-05-19T21:21:05.688Z,10.95
2023-05-19T21:23:35.601Z,11.18
2023-05-19T21:26:04.877Z,11.21
2023-05-19T21:28:33.067Z,11.02
2023-05-19T21:31:01.833Z,10.96
2023-05-19T21:33:30.549Z,10.86
2023-05-19T21:36:00.728Z,11.13
2023-05-19T21:38:28.607Z,11.12
2023-05-19T21:40:56.760Z,10.90
2023-05-19T21:43:25.218Z,11.11
2023-05-19T21:45:54.020Z,11.00
2023-05-19T21:48:22.039Z,11.04
2023-05-19T21:50:55.038Z,11.24
2023-05-19T21:53:23.162Z,11.14
2023-05-19T21:55:51.500Z,11.31
2023-05-19T21:58:19.819Z,10.97
2023-05-19T22:00:53.487Z,11.06
2023-05-19T22:03:23.848Z,11.30
2023-05-19T22:05:53.351Z,11.42
2023-05-19T22:08:23.017Z,11.19
2023-05-19T22:10:52.237Z,11.20
2023-05-19T22:13:20.996Z,11.23
2023-05-19T22:15:49.329Z,11.44
2023-05-19T22:18:17.185Z,11.02
2023-05-19T22:20:45.172Z,11.17
2023-05-19T22:23:13.262Z,11.02
2023-05-19T22:25:41.554Z,11.35
2023-05-19T22:28:09.230Z,11.01
2023-05-19T22:30:41.125Z,11.02
2023-05-19T22:33:12.151Z,11.30
2023-05-19T22:35:39.860Z,11.05
2023-05-19T22:38:10.715Z,11.04
2023-05-19T22:40:39.380Z,11.12
2023-05-19T22:43:07.347Z,11.19
2023-05-19T22:45:36.690Z,11.19
2023-05-19T22:48:04.721Z,11.44
2023-05-19T22:50:32.334Z,11.21
2023-05-19T22:52:59.988Z,11.11
2023-05-19T22:55:27.953Z,11.18
2023-05-19T22:57:56.311Z,10.94
2023-05-19T23:00:24.306Z,11.17
2023-05-19T23:02:52.222Z,11.27
2023-05-19T23:05:20.684Z,11.06
2023-05-19T23:07:48.089Z,11.18
2023-05-19T23:10:17.783Z,11.14
2023-05-19T23:12:45.719Z,11.05
2023-05-19T23:15:14.649Z,11.01
2023-05-19T23:17:41.920Z,11.04
2023-05-19T23:20:11.048Z,10.96
2023-05-19T23:22:38.705Z,11.16
2023-05-19T23:25:07.918Z,11.18
2023-05-19T23:27:36.529Z,11.11
2023-05-19T23:30:04.727Z,11.19
2023-05-19T23:32:32.448Z,10.86
2023-05-19T23:35:20.844Z,11.14
2023-05-19T23:37:49.861Z,11.20
2023-05-19T23:40:17.886Z,11.02
2023-05-19T23:42:45.790Z,11.06
2023-05-19T23:45:13.842Z,10.95
2023-05-19T23:47:41.855Z,11.17
2023-05-19T23:50:12.678Z,10.80
2023-05-19T23:52:40.386Z,11.02
2023-05-19T23:55:08.822Z,10.82
2023-05-19T23:57:36.550Z,10.92
